WetterOnline ( https://www.wetteronline.de )

Wetter aktuell Mannheim

Aktuelles Wetter: Mannheim (100m)

6-stündlich | Neueste Meldungen
Ortszeit Temperatur Wetter
Fr, 01.03. 19:00 7.5° C wolkig
Fr, 01.03. 13:00 9.7° C bedeckt
Fr, 01.03. 7:00 5.6° C wolkig
Fr, 01.03. 1:00 2.0° C wolkenlos
Do, 29.02. 19:00 7.1° C wolkenlos
Do, 29.02. 13:00 10.0° C fast wolkenlos
Do, 29.02. 7:00 -0.6° C wolkenlos
Do, 29.02. 1:00 3.4° C bedeckt
Ortszeit Temperatur Wetter
Fr, 01.03. 19:00 7.5° C wolkig
Fr, 01.03. 18:30 8.2° C wolkig
Fr, 01.03. 18:20 8.2° C wolkig
Fr, 01.03. 18:10 8.3° C bedeckt
Fr, 01.03. 18:00 8.9° C bewölkt
Fr, 01.03. 17:50 8.9° C bewölkt
Fr, 01.03. 17:30 9.8° C bedeckt
Fr, 01.03. 17:00 10.1° C wolkig
Fr, 01.03. 16:30 10.1° C bewölkt
Fr, 01.03. 16:00 10.3° C bewölkt
Ortszeit Relative Feuchte Sichtweite
Fr, 01.03. 19:00 78% 50 km
Fr, 01.03. 13:00 69% 65 km
Fr, 01.03. 7:00 85% 12 km
Fr, 01.03. 1:00 93% 10 km
Do, 29.02. 19:00 78% 20 km
Do, 29.02. 13:00 66% 17 km
Do, 29.02. 7:00 99% 4.5 km
Do, 29.02. 1:00 89% 13 km
Ortszeit Relative Feuchte Sichtweite
Fr, 01.03. 19:00 78% 50 km
Fr, 01.03. 18:30 75% 55 km
Fr, 01.03. 18:20 75% -
Fr, 01.03. 18:10 75% -
Fr, 01.03. 18:00 73% 55 km
Fr, 01.03. 17:50 73% -
Fr, 01.03. 17:30 67% 65 km
Fr, 01.03. 17:00 66% 65 km
Fr, 01.03. 16:30 67% >70 km
Fr, 01.03. 16:00 66% 65 km
Ortszeit Niederschlagsmenge Niederschlagsart
Fr, 01.03. 19:00 0.0 l/m2 in 12 Std. -
Fr, 01.03. 13:00 0.0 l/m2 in 6 Std. -
Fr, 01.03. 7:00 0.0 l/m2 in 12 Std. -
Fr, 01.03. 1:00 0.0 l/m2 in 6 Std. -
Do, 29.02. 19:00 0.0 l/m2 in 12 Std. -
Do, 29.02. 13:00 0.0 l/m2 in 6 Std. -
Do, 29.02. 7:00 0.0 l/m2 in 12 Std. -
Do, 29.02. 1:00 0.0 l/m2 in 6 Std. -
Ortszeit Niederschlagsmenge Niederschlagsart
Fr, 01.03. 19:00 keine Meldung -
Fr, 01.03. 18:30 0.0 l/m2 in 30 Min -
Fr, 01.03. 18:20 keine Meldung -
Fr, 01.03. 18:10 keine Meldung -
Fr, 01.03. 18:00 0.0 l/m2 in 1 Std. -
Fr, 01.03. 17:50 keine Meldung -
Fr, 01.03. 17:30 0.0 l/m2 in 30 Min -
Fr, 01.03. 17:00 0.0 l/m2 in 1 Std. -
Fr, 01.03. 16:30 0.0 l/m2 in 30 Min -
Fr, 01.03. 16:00 0.0 l/m2 in 1 Std. -
Ortszeit Stärke Spitze Richtung
km/h Bft. km/h Grad Sektor
Fr, 01.03. 19:00 7 2 25 140° SO
Fr, 01.03. 13:00 14 3 25 210° SW
Fr, 01.03. 7:00 13 3 20 140° SO
Fr, 01.03. 1:00 4 1 7 240° SW
Do, 29.02. 19:00 2 1 19 280° W
Do, 29.02. 13:00 4 1 18 140° SO
Do, 29.02. 7:00 4 1 7 130° SO
Do, 29.02. 1:00 4 1 14 80° O
Ortszeit Stärke Spitze Richtung
km/h Bft. km/h Grad Sektor
Fr, 01.03. 19:00 7 2 25 140° SO
Fr, 01.03. 18:30 11 2 15 150° SO
Fr, 01.03. 18:20 11 2 - 150° SO
Fr, 01.03. 18:10 11 2 - 140° SO
Fr, 01.03. 18:00 9 2 20 150° SO
Fr, 01.03. 17:50 9 2 - 150° SO
Fr, 01.03. 17:30 13 3 20 150° SO
Fr, 01.03. 17:00 13 3 22 160° S
Fr, 01.03. 16:30 11 2 22 160° S
Fr, 01.03. 16:00 17 3 24 170° S
Ortszeit Untergrenze Bedeckung Gattung
total tief tief mittel hoch
Fr, 01.03. 19:00 7500 m 8/8 0/8 - - -
Fr, 01.03. 13:00 840 m 8/8 8/8 - - -
Fr, 01.03. 7:00 2400 m 8/8 3/8 - - -
Fr, 01.03. 1:00 - 0/8 0/8 - - -
Do, 29.02. 19:00 - 0/8 0/8 - - -
Do, 29.02. 13:00 10500 m 2/8 0/8 - - -
Do, 29.02. 7:00 - 0/8 0/8 - - -
Do, 29.02. 1:00 5100 m 8/8 8/8 - - -
Ortszeit Bedeckungsgrad in Achtel und Wolkenuntergrenze
Fr, 01.03. 19:00 2(7500m) 8(8700m)
Fr, 01.03. 18:30 2(5100m) 8(9000m) 8(9000m)
Fr, 01.03. 18:20 2(5100m) 8(9000m) 8(9000m)
Fr, 01.03. 18:10 8
Fr, 01.03. 18:00 2(3300m) 6(5400m) 7(9000m)
Fr, 01.03. 17:50 2(3300m) 6(5400m) 7(9000m)
Fr, 01.03. 17:30 8(3600m)
Fr, 01.03. 17:00 3(930m) 8(3300m)
Fr, 01.03. 16:30 5(930m) 8(3300m) 8(4200m)
Fr, 01.03. 16:00 7(900m) 7(3300m)
Ortszeit Luftdruck NN (hPa) Tendenz (hPa in 3 Std.)
Fr, 01.03. 19:00 1007 - 0,3
Fr, 01.03. 13:00 1008 + 0,3
Fr, 01.03. 7:00 1008 + 0,6
Fr, 01.03. 1:00 1008 - 0,8
Do, 29.02. 19:00 1009 - 1,9
Do, 29.02. 13:00 1015 - 2,5
Do, 29.02. 7:00 1019 - 1,2
Do, 29.02. 1:00 1021 - 1,2
Ortszeit Luftdruck NN (hPa) Tendenz (hPa in 3 Std.)
Fr, 01.03. 19:00 1007 - 0,3
Fr, 01.03. 18:30 1007 - 0,6
Fr, 01.03. 18:20 1007 keine Meldung
Fr, 01.03. 18:10 1007 keine Meldung
Fr, 01.03. 18:00 1007 - 0,6
Fr, 01.03. 17:50 1007 keine Meldung
Fr, 01.03. 17:30 1007 - 1,0
Fr, 01.03. 17:00 1007 - 1,1
Fr, 01.03. 16:30 1007 - 1,1
Fr, 01.03. 16:00 1007 - 1,0
Ortszeit Schneehöhe (cm)
Fr, 01.03. 19:00 0
Fr, 01.03. 13:00 0
Fr, 01.03. 7:00 0
Fr, 01.03. 1:00 0
Do, 29.02. 19:00 0
Do, 29.02. 13:00 0
Do, 29.02. 7:00 0
Do, 29.02. 1:00 0
Ortszeit Schneehöhe (cm)
Fr, 01.03. 19:00 0
Fr, 01.03. 18:30 0
Fr, 01.03. 18:20 0
Fr, 01.03. 18:10 -
Fr, 01.03. 18:00 0
Fr, 01.03. 17:50 0
Fr, 01.03. 17:30 0
Fr, 01.03. 17:00 0
Fr, 01.03. 16:30 0
Fr, 01.03. 16:00 0
Link zu dieser Seite / Seite empfehlen

Das Wetter in ...